Time;durP1;ratioP1;P1;durP2;ratioP2;P2;SDS_P1;SDS_P2;PMS_P1;PMS_P2;Temp;Humidity;BMP_temperature;BMP_pressure;BME280_temperature;BME280_humidity;BME280_pressure;Samples;Min_cycle;Max_cycle;Signal;HPM_P1;HPM_P2
2023/07/07 02:56:39;;;;;;;12.00;4.60;;;;;;;16.79;67.17;99582.77;106941;1305;545574;-51
2023/07/07 02:59:05;;;;;;;10.30;4.20;;;;;;;16.77;67.29;99582.44;107350;1313;22437;-44
2023/07/07 03:01:32;;;;;;;9.00;4.50;;;;;;;16.76;67.61;99585.32;107361;1313;22974;-51
2023/07/07 03:03:58;;;;;;;;;;;;;;;16.76;68.46;99584.40;107367;1313;22464;-48
2023/07/07 03:06:23;;;;;;;11.70;4.80;;;;;;;16.76;68.44;99589.92;107347;1313;22220;-51
2023/07/07 03:08:49;;;;;;;9.90;4.90;;;;;;;16.77;67.94;99593.34;107376;1313;22282;-49
2023/07/07 03:11:18;;;;;;;21.90;5.30;;;;;;;16.78;68.47;99597.05;107288;1311;285937;-53
2023/07/07 03:13:45;;;;;;;8.20;4.70;;;;;;;16.77;68.92;99601.91;107523;1311;22462;-48
2023/07/07 03:16:13;;;;;;;13.80;5.10;;;;;;;16.77;69.22;99601.85;107520;1311;23196;-47
2023/07/07 03:18:40;;;;;;;10.40;4.70;;;;;;;16.79;69.59;99605.27;107509;1311;22246;-50
2023/07/07 03:21:06;;;;;;;11.70;4.50;;;;;;;16.78;69.50;99606.73;107670;1310;22400;-48
2023/07/07 03:23:32;;;;;;;13.50;5.20;;;;;;;16.78;69.99;99608.03;107669;1310;22330;-50
2023/07/07 03:26:08;;;;;;;19.00;4.60;;;;;;;16.78;69.65;99611.17;107663;1310;22472;-51
2023/07/07 03:28:34;;;;;;;15.90;4.70;;;;;;;16.78;70.21;99614.34;107677;1310;22549;-50
2023/07/07 03:31:10;;;;;;;11.20;4.90;;;;;;;16.82;71.17;99614.12;107647;1310;22328;-51
2023/07/07 03:33:35;;;;;;;12.10;4.70;;;;;;;16.84;71.40;99613.94;107802;1308;22265;-45
2023/07/07 03:36:01;;;;;;;6.70;4.50;;;;;;;16.90;69.97;99611.23;107800;1308;22487;-50
2023/07/07 03:38:26;;;;;;;10.80;4.80;;;;;;;16.98;69.64;99614.52;107782;1308;22243;-53
2023/07/07 03:40:51;;;;;;;14.70;4.70;;;;;;;17.02;68.45;99615.59;107778;1308;23209;-51
2023/07/07 03:43:18;;;;;;;8.70;4.60;;;;;;;17.06;68.00;99616.30;107762;1308;22210;-50
2023/07/07 03:45:44;;;;;;;16.20;5.40;;;;;;;17.12;67.90;99614.25;107780;1308;22493;-48
2023/07/07 03:48:09;;;;;;;10.60;4.70;;;;;;;17.18;67.21;99618.59;107787;1308;23058;-48
2023/07/07 03:50:34;;;;;;;9.70;4.10;;;;;;;17.23;66.68;99623.84;107791;1308;22238;-49
2023/07/07 03:52:59;;;;;;;8.50;4.00;;;;;;;17.29;66.71;99627.17;107795;1308;23064;-49
2023/07/07 03:55:25;;;;;;;9.70;4.50;;;;;;;17.30;66.82;99627.59;107782;1308;24372;-48
2023/07/07 03:57:50;;;;;;;10.60;4.30;;;;;;;17.32;66.34;99624.98;107806;1308;23181;-48
2023/07/07 04:00:16;;;;;;;9.00;4.40;;;;;;;17.35;66.18;99622.95;107784;1308;23156;-51
2023/07/07 04:02:43;;;;;;;7.60;4.10;;;;;;;17.37;65.86;99626.15;107756;1308;22153;-51
2023/07/07 04:05:08;;;;;;;13.90;4.20;;;;;;;17.40;65.58;99627.91;107847;1308;23220;-49
2023/07/07 04:07:33;;;;;;;8.50;3.90;;;;;;;17.39;64.53;99629.54;107835;1308;22920;-51
2023/07/07 04:09:59;;;;;;;10.50;4.20;;;;;;;17.41;64.91;99626.59;107807;1308;22495;-51
2023/07/07 04:12:24;;;;;;;8.90;4.30;;;;;;;17.44;65.60;99628.48;107837;1308;22286;-50
2023/07/07 04:14:50;;;;;;;22.00;4.80;;;;;;;17.45;65.46;99626.94;107830;1308;22392;-48
2023/07/07 04:17:15;;;;;;;15.20;4.40;;;;;;;17.46;65.92;99624.40;107810;1308;22226;-49
2023/07/07 04:19:40;;;;;;;14.40;4.30;;;;;;;17.48;65.73;99627.79;107819;1308;22245;-48
2023/07/07 04:22:06;;;;;;;6.40;4.00;;;;;;;17.50;65.18;99630.67;107827;1308;22295;-54
2023/07/07 04:24:31;;;;;;;9.40;4.10;;;;;;;17.53;65.75;99631.81;107837;1308;22453;-50
2023/07/07 04:26:56;;;;;;;10.10;4.50;;;;;;;17.56;65.00;99633.18;107822;1308;22238;-48
2023/07/07 04:29:21;;;;;;;7.80;3.50;;;;;;;17.60;64.73;99632.01;107824;1308;22175;-47
2023/07/07 04:31:47;;;;;;;7.10;3.00;;;;;;;17.64;64.41;99634.69;107821;1308;23004;-50
2023/07/07 04:34:14;;;;;;;6.50;3.00;;;;;;;17.70;64.13;99638.52;107860;1308;22423;-47
2023/07/07 04:36:40;;;;;;;6.80;3.30;;;;;;;17.75;63.64;99640.58;107839;1308;22064;-51
2023/07/07 04:39:05;;;;;;;16.40;3.60;;;;;;;17.80;63.11;99645.50;107792;1295;22298;-50
2023/07/07 04:41:31;;;;;;;12.10;3.50;;;;;;;17.87;62.92;99647.28;107825;1308;22459;-49
2023/07/07 04:43:59;;;;;;;12.20;3.60;;;;;;;17.94;62.83;99651.51;107828;1308;22468;-49
2023/07/07 04:46:36;;;;;;;9.90;3.00;;;;;;;17.99;62.10;99661.52;107827;1308;22225;-50
2023/07/07 04:49:06;;;;;;;7.20;3.60;;;;;;;18.06;61.93;99666.34;107796;1308;22249;-47
2023/07/07 04:51:36;;;;;;;12.00;3.80;;;;;;;18.11;62.21;99670.39;107826;1308;23144;-50
2023/07/07 04:54:03;;;;;;;8.20;3.60;;;;;;;18.16;62.40;99678.23;107828;1289;22405;-53
2023/07/07 04:56:28;;;;;;;9.60;4.00;;;;;;;18.20;62.76;99686.99;107816;1308;22221;-52
2023/07/07 04:58:53;;;;;;;6.30;3.50;;;;;;;18.21;62.21;99690.52;107816;1308;22401;-52
2023/07/07 05:01:22;;;;;;;18.30;4.00;;;;;;;18.17;61.60;99691.55;107830;1308;22411;-47
2023/07/07 05:03:53;;;;;;;13.50;3.70;;;;;;;18.16;61.58;99694.11;107811;1308;22213;-49
2023/07/07 05:06:20;;;;;;;10.20;3.50;;;;;;;18.12;61.64;99695.28;107822;1308;22470;-54
2023/07/07 05:08:45;;;;;;;5.60;3.80;;;;;;;18.14;61.70;99695.13;107854;1308;22464;-52
2023/07/07 05:11:13;;;;;;;13.90;4.40;;;;;;;18.21;61.74;99693.30;107818;1308;22216;-48
2023/07/07 05:13:39;;;;;;;9.00;3.70;;;;;;;18.29;62.03;99692.86;107835;1308;22859;-51
2023/07/07 05:16:13;;;;;;;8.20;4.00;;;;;;;18.34;62.19;99699.73;107814;1308;22348;-48
2023/07/07 05:18:39;;;;;;;10.00;3.70;;;;;;;18.42;62.52;99704.95;107811;1308;23107;-51
2023/07/07 05:21:07;;;;;;;12.10;3.60;;;;;;;18.51;62.24;99702.79;107799;1308;22635;-51
2023/07/07 05:23:33;;;;;;;12.60;3.80;;;;;;;18.61;62.15;99704.84;107829;1308;23065;-48
2023/07/07 05:25:58;;;;;;;10.20;3.80;;;;;;;18.70;61.83;99701.42;107835;1308;22418;-53
2023/07/07 05:28:23;;;;;;;8.50;3.90;;;;;;;18.80;61.79;99701.85;107822;1308;22233;-48
2023/07/07 05:30:49;;;;;;;9.30;3.70;;;;;;;18.88;61.63;99702.96;107796;1308;22544;-53
2023/07/07 05:33:14;;;;;;;8.20;3.00;;;;;;;18.98;61.52;99706.42;107803;1308;23172;-48
2023/07/07 05:35:51;;;;;;;9.40;2.80;;;;;;;19.04;60.29;99701.48;107825;1308;22442;-47
2023/07/07 05:38:18;;;;;;;10.50;3.00;;;;;;;19.07;59.35;99704.59;107857;1308;22437;-49
2023/07/07 05:40:45;;;;;;;5.20;2.70;;;;;;;19.16;59.04;99707.55;107828;1308;23290;-48
2023/07/07 05:43:11;;;;;;;;;;;;;;;19.26;58.80;99706.17;107831;1308;23198;-52
2023/07/07 05:45:36;;;;;;;8.40;3.40;;;;;;;19.30;57.42;99706.59;107821;1292;22417;-48
2023/07/07 05:48:01;;;;;;;8.30;3.00;;;;;;;19.38;57.72;99707.61;107810;1308;22275;-52
2023/07/07 05:50:27;;;;;;;8.90;2.90;;;;;;;19.49;58.24;99713.67;107826;1308;22846;-52
2023/07/07 05:52:52;;;;;;;5.70;2.30;;;;;;;19.58;57.65;99712.85;107785;1308;22247;-48
2023/07/07 05:55:30;;;;;;;8.30;2.80;;;;;;;19.66;56.96;99717.58;107792;1308;22229;-51
2023/07/07 05:57:56;;;;;;;7.40;2.50;;;;;;;19.70;55.56;99721.51;107461;1308;22572;-51
2023/07/07 06:00:22;;;;;;;3.50;2.50;;;;;;;19.71;55.21;99726.17;107192;1308;22407;-50
2023/07/07 06:02:48;;;;;;;10.80;2.80;;;;;;;19.72;54.53;99726.48;107839;1308;22242;-50
2023/07/07 06:05:14;;;;;;;4.40;2.70;;;;;;;19.73;53.83;99727.31;107850;1308;22262;-50
2023/07/07 06:07:39;;;;;;;4.20;2.00;;;;;;;19.71;53.70;99725.33;107789;1308;22241;-50
2023/07/07 06:10:05;;;;;;;5.70;2.30;;;;;;;19.75;53.82;99725.89;107746;1301;22987;-52
2023/07/07 06:12:32;;;;;;;4.10;2.40;;;;;;;19.77;53.87;99727.83;107682;1287;22912;-52
2023/07/07 06:14:57;;;;;;;;;;;;;;;19.79;53.73;99730.11;107701;1301;22568;-51
2023/07/07 06:17:23;;;;;;;7.30;2.40;;;;;;;19.80;53.26;99733.66;107785;1308;22309;-48
2023/07/07 06:19:48;;;;;;;8.30;2.60;;;;;;;19.79;53.28;99736.91;107731;1305;23126;-52
2023/07/07 06:22:13;;;;;;;2.70;1.90;;;;;;;19.81;53.28;99736.39;107724;1309;22146;-53
2023/07/07 06:24:39;;;;;;;6.70;2.40;;;;;;;19.82;52.63;99740.55;107786;1308;22254;-50
2023/07/07 06:27:04;;;;;;;6.20;1.90;;;;;;;19.83;52.50;99737.80;107698;1308;22435;-51
2023/07/07 06:29:31;;;;;;;9.30;2.10;;;;;;;19.87;53.01;99742.61;107755;1304;22259;-44
2023/07/07 06:31:56;;;;;;;5.40;2.40;;;;;;;19.90;52.81;99743.44;107755;1302;22596;-51
2023/07/07 06:34:22;;;;;;;4.90;2.20;;;;;;;19.93;52.77;99750.08;107746;1309;23066;-47
2023/07/07 06:36:47;;;;;;;13.70;2.70;;;;;;;19.93;52.51;99751.86;107775;1308;23262;-48
2023/07/07 06:39:12;;;;;;;5.40;2.40;;;;;;;19.99;52.87;99753.84;107708;1301;22279;-48
2023/07/07 06:41:38;;;;;;;6.00;2.30;;;;;;;20.03;52.68;99752.07;107770;1302;22267;-50
2023/07/07 06:44:03;;;;;;;7.10;2.10;;;;;;;20.07;52.01;99755.11;107755;1308;22352;-49
2023/07/07 06:46:28;;;;;;;5.10;1.90;;;;;;;20.13;52.17;99754.63;107721;1309;22257;-50
2023/07/07 06:48:54;;;;;;;4.80;2.10;;;;;;;20.15;51.82;99752.45;107774;1308;22430;-50
2023/07/07 06:51:19;;;;;;;6.20;2.00;;;;;;;20.15;51.04;99752.47;107702;1308;22495;-46
2023/07/07 06:53:45;;;;;;;5.00;2.10;;;;;;;20.16;50.19;99757.71;107759;1308;22227;-51
2023/07/07 06:56:10;;;;;;;4.40;2.10;;;;;;;20.17;50.24;99758.20;107742;1301;22233;-51
2023/07/07 06:58:36;;;;;;;3.50;2.10;;;;;;;20.19;50.13;99758.83;107736;1309;22294;-51
2023/07/07 07:01:01;;;;;;;4.10;1.90;;;;;;;20.25;50.63;99758.73;107760;1302;23302;-51
2023/07/07 07:03:27;;;;;;;6.30;2.30;;;;;;;20.34;51.15;99761.30;107732;1302;22421;-50
2023/07/07 07:05:53;;;;;;;3.90;2.40;;;;;;;20.42;51.29;99760.78;107740;1308;22233;-50
2023/07/07 07:08:19;;;;;;;5.40;2.10;;;;;;;20.47;51.01;99765.44;107760;1308;22491;-49
2023/07/07 07:10:44;;;;;;;5.20;2.50;;;;;;;20.52;50.16;99767.50;107739;1309;23080;-48
2023/07/07 07:13:09;;;;;;;7.70;2.00;;;;;;;20.54;49.66;99765.96;107774;1308;22448;-51
2023/07/07 07:15:35;;;;;;;4.70;2.40;;;;;;;20.55;49.43;99762.64;107731;1302;23156;-52
2023/07/07 07:18:00;;;;;;;4.30;2.20;;;;;;;20.55;49.20;99763.52;106706;1309;23462;-50
2023/07/07 07:20:25;;;;;;;2.30;2.10;;;;;;;20.59;49.51;99764.91;106617;1302;22559;-50
2023/07/07 07:22:51;;;;;;;4.00;2.10;;;;;;;20.62;49.39;99761.63;107263;1309;22269;-46
2023/07/07 07:25:16;;;;;;;4.70;2.40;;;;;;;20.64;49.67;99759.85;107764;1308;22504;-53
2023/07/07 07:27:41;;;;;;;9.80;2.40;;;;;;;20.68;49.74;99760.23;107729;1298;22822;-51
2023/07/07 07:30:08;;;;;;;3.10;2.30;;;;;;;20.75;49.59;99760.55;107738;1309;25003;-48
2023/07/07 07:32:34;;;;;;;4.20;2.00;;;;;;;20.84;49.38;99766.29;107736;1301;22187;-47
2023/07/07 07:34:59;;;;;;;8.40;2.20;;;;;;;20.87;48.20;99767.80;107759;1304;22250;-49
2023/07/07 07:37:25;;;;;;;8.40;2.40;;;;;;;20.87;47.95;99772.11;107704;1302;22197;-50
2023/07/07 07:39:50;;;;;;;6.50;2.70;;;;;;;20.91;48.40;99772.41;107775;1308;22276;-52
2023/07/07 07:42:16;;;;;;;3.60;2.00;;;;;;;21.00;49.09;99773.57;107767;1292;22345;-46
2023/07/07 07:44:42;;;;;;;3.70;2.10;;;;;;;21.06;48.09;99780.12;107724;1309;22466;-50
2023/07/07 07:47:08;;;;;;;3.10;2.40;;;;;;;21.10;47.13;99778.91;107821;1302;23274;-45
2023/07/07 07:49:33;;;;;;;11.50;2.10;;;;;;;21.19;47.93;99775.63;107729;1301;22310;-47
2023/07/07 07:51:59;;;;;;;2.80;2.30;;;;;;;21.29;47.90;99776.29;107770;1301;23043;-51
2023/07/07 07:54:25;;;;;;;3.10;1.80;;;;;;;21.36;47.04;99779.86;107772;1305;23936;-51
2023/07/07 07:56:51;;;;;;;5.40;2.10;;;;;;;21.42;46.33;99780.91;107750;1301;22247;-51
2023/07/07 07:59:16;;;;;;;4.90;2.20;;;;;;;21.51;46.30;99784.30;107788;1302;22316;-48
2023/07/07 08:01:42;;;;;;;7.80;2.10;;;;;;;21.59;45.88;99786.56;106621;1302;22548;-51
2023/07/07 08:04:07;;;;;;;6.30;2.10;;;;;;;21.67;44.72;99783.69;106902;1309;22558;-48
2023/07/07 08:06:34;;;;;;;3.90;1.80;;;;;;;21.74;44.43;99783.19;107105;1308;22563;-47
2023/07/07 08:09:00;;;;;;;7.80;1.80;;;;;;;21.80;44.55;99781.30;107425;1301;23695;-47
2023/07/07 08:11:40;;;;;;;17.30;2.10;;;;;;;21.83;44.45;99786.40;107426;1301;22870;-48
2023/07/07 08:14:11;;;;;;;2.90;1.70;;;;;;;21.92;44.11;99788.23;107793;1309;22445;-52
2023/07/07 08:16:36;;;;;;;2.90;2.00;;;;;;;22.04;43.92;99786.95;107805;1308;22426;-49
2023/07/07 08:19:02;;;;;;;3.10;2.10;;;;;;;22.20;43.53;99785.45;107748;1301;22300;-50
2023/07/07 08:21:27;;;;;;;5.00;1.80;;;;;;;22.35;42.87;99789.23;107779;1309;22362;-50
2023/07/07 08:23:52;;;;;;;4.10;1.80;;;;;;;22.55;42.80;99789.89;107744;1308;23004;-52
2023/07/07 08:26:18;;;;;;;5.00;2.00;;;;;;;22.64;41.09;99785.53;107741;1308;22541;-50
2023/07/07 08:28:43;;;;;;;7.00;2.70;;;;;;;22.67;40.85;99781.48;107600;1309;23237;-48
2023/07/07 08:31:08;;;;;;;3.00;1.90;;;;;;;22.69;42.66;99783.91;107778;1301;22243;-50
2023/07/07 08:33:34;;;;;;;6.40;2.10;;;;;;;22.79;42.57;99786.87;107730;1308;22181;-55
2023/07/07 08:35:59;;;;;;;2.10;1.80;;;;;;;23.04;42.76;99790.16;107770;1301;23101;-47
2023/07/07 08:38:25;;;;;;;6.00;1.40;;;;;;;23.32;40.59;99790.56;107767;1308;22430;-54
2023/07/07 08:40:54;;;;;;;3.10;2.00;;;;;;;23.47;39.87;99789.94;107710;1308;22265;-48
2023/07/07 08:43:22;;;;;;;2.20;1.60;;;;;;;23.41;38.99;99791.84;107810;1302;22274;-51
2023/07/07 08:46:04;;;;;;;4.50;1.80;;;;;;;23.32;38.37;99798.48;107565;1308;23258;-51
